Latest Weather Observations for Cape Sorell

IDT60801

Issued at 6:02 am EDT Tuesday 17 January 2017 (issued every 30 minutes, with the page automatically refreshed every 10 minutes)

About weather observations | Map of weather stations | Latest weather observations for TAS | Other Formats
Station Details ID: 097000 Name: CAPE SORELL Lat: -42.20 Lon: 145.17 Height: 19.3 m
Data from the previous 72 hours. | See also: Recent months at Cape Sorell
Date/Time
EDT
Temp
°C
App
Temp
°C
Dew
Point
°C
Rel
Hum
%
Delta-T
°C
Wind Press
QNH
hPa
Press
MSL
hPa
Rain since
9am
mm
Dir  Spd
km/h
Gust
km/h
Spd
kts
Gust
kts
17/05:30am 15.3 13.1 12.2 82 1.7 NNW 15 20 8 11 1006.5 1006.5 0.2
17/05:00am 15.2 12.2 12.0 81 1.7 NNW 19 24 10 13 1006.4 1006.4 0.2
17/04:30am 15.1 12.0 11.7 80 1.8 NNW 19 24 10 13 1006.3 1006.3 0.2
17/04:00am 15.0 11.6 11.4 79 1.9 NNW 20 30 11 16 1005.9 1005.9 0.2
17/03:30am 14.9 11.5 11.3 79 1.9 NW 20 26 11 14 1005.7 1005.7 0.2
17/03:00am 14.9 11.8 11.5 80 1.8 NNW 19 30 10 16 1005.8 1005.8 0.2
17/02:30am 14.9 10.9 11.7 81 1.7 N 24 30 13 16 1005.4 1005.4 0.2
17/02:00am 14.6 10.5 11.6 82 1.6 NNE 24 28 13 15 1005.7 1005.7 0.2
17/01:30am 14.7 10.9 11.3 80 1.8 NNE 22 28 12 15 1006.4 1006.4 0.2
17/01:00am 15.3 12.1 11.1 76 2.2 N 19 28 10 15 1007.2 1007.2 0.2
17/12:30am 15.2 11.8 10.4 73 2.5 NNW 19 26 10 14 1007.7 1007.7 0.2
17/12:00am 15.4 11.9 10.8 74 2.4 NNW 20 30 11 16 1008.1 1008.1 0.2
 
Date/Time
EDT
Temp
°C
App
Temp
°C
Dew
Point
°C
Rel
Hum
%
Delta-T
°C
Wind Press
QNH
hPa
Press
MSL
hPa
Rain since
9am
mm
Dir  Spd
km/h
Gust
km/h
Spd
kts
Gust
kts
16/11:30pm 15.4 11.9 10.8 74 2.4 NNW 20 28 11 15 1008.8 1008.8 0.2
16/11:00pm 15.5 12.1 10.7 73 2.5 NNW 19 28 10 15 1009.1 1009.1 0.2
16/10:30pm 15.5 11.5 10.5 72 2.6 N 22 28 12 15 1009.5 1009.5 0.2
16/10:00pm 15.4 11.4 10.4 72 2.6 NNW 22 32 12 17 1009.7 1009.7 0.2
16/09:30pm 15.4 11.0 10.4 72 2.6 NW 24 32 13 17 1009.8 1009.8 0.2
16/09:00pm 15.4 11.4 10.4 72 2.6 NW 22 30 12 16 1009.8 1009.8 0.2
16/08:30pm 15.3 11.3 10.5 73 2.5 NW 22 30 12 16 1009.8 1009.8 0.2
16/08:00pm 15.5 10.9 10.9 74 2.5 NW 26 33 14 18 1009.6 1009.6 0.2
16/07:30pm 16.0 11.8 11.2 73 2.6 NNW 24 33 13 18 1009.2 1009.2 0.2
16/07:00pm 16.1 12.0 11.5 74 2.5 NNW 24 32 13 17 1009.4 1009.4 0.2
16/06:30pm 15.9 12.1 11.3 74 2.5 NNW 22 30 12 16 1009.4 1009.4 0.2
16/06:00pm 16.0 12.8 12.0 77 2.2 NNW 20 28 11 15 1009.8 1009.8 0.2
16/05:30pm 15.9 13.3 12.1 78 2.1 NNW 17 24 9 13 1010.2 1010.2 0.2
16/05:00pm 15.6 13.0 12.0 79 2.0 NNW 17 24 9 13 1010.5 1010.5 0.2
16/04:30pm 15.5 13.2 11.9 79 2.0 NW 15 24 8 13 1010.9 1010.9 0.2
16/04:00pm 16.0 13.7 11.6 75 2.4 NW 15 20 8 11 1011.3 1011.3 0.0
16/03:30pm 16.9 13.2 11.6 71 2.9 NW 22 30 12 16 1011.4 1011.4 0.0
16/03:00pm 18.1 15.1 12.5 70 3.1 NW 20 26 11 14 1011.7 1011.7 0.0
16/02:30pm 16.3 12.1 11.0 71 2.8 NW 24 35 13 19 1012.0 1012.0 0.0
16/02:00pm 17.5 14.0 12.2 71 2.9 NW 22 30 12 16 1012.2 1012.2 0.0
16/01:30pm 17.3 12.7 12.4 73 2.7 WNW 28 33 15 18 1012.4 1012.4 0.0
16/01:00pm 16.9 14.0 12.2 74 2.6 NNW 19 28 10 15 1012.7 1012.7 0.0
16/12:30pm 16.1 11.8 11.9 76 2.3 NW 26 37 14 20 1012.9 1012.9 0.0
16/12:00pm 16.7 13.0 11.4 71 2.9 NNW 22 26 12 14 1013.0 1013.0 0.0
16/11:30am 17.0 12.7 10.8 67 3.3 NW 24 30 13 16 1013.1 1013.1 0.0
16/11:00am 17.8 14.5 12.7 72 2.8 NNW 22 30 12 16 1013.3 1013.3 0.0
16/10:30am 16.5 13.5 12.7 78 2.1 NNW 20 28 11 15 1013.3 1013.3 0.0
16/10:00am 15.3 12.4 12.4 83 1.6 NNW 19 24 10 13 1013.7 1013.7 0.0
16/09:30am 14.4 10.8 11.9 85 1.3 NW 22 30 12 16 1013.6 1013.6 0.0
16/09:00am 13.4 9.9 10.8 84 1.4 WNW 20 30 11 16 1013.5 1013.5 0.8
16/08:30am 14.4 10.3 11.4 82 1.6 NNW 24 32 13 17 1013.2 1013.2 0.6
16/08:00am 13.9 12.2 11.1 83 1.5 WNW 11 17 6 9 1012.9 1012.9 0.6
16/07:30am 13.3 12.8 10.7 84 1.4 NW 4 9 2 5 1013.0 1013.0 0.6
16/07:00am 12.8 11.5 10.0 83 1.4 W 7 11 4 6 1012.9 1012.9 0.6
16/06:30am 13.2 7.9 10.0 81 1.6 W 28 35 15 19 1012.8 1012.8 0.6
16/06:00am 13.4 8.9 10.2 81 1.7 WNW 24 33 13 18 1012.6 1012.6 0.6
16/05:30am 13.1 9.7 10.5 84 1.4 WNW 19 26 10 14 1012.6 1012.6 0.6
16/05:00am 12.5 8.0 9.9 84 1.3 WNW 24 33 13 18 1012.4 1012.4 0.6
16/04:30am 13.0 9.9 10.4 84 1.3 WNW 17 22 9 12 1012.5 1012.5 0.6
16/04:00am 12.7 10.3 10.1 84 1.3 WNW 13 19 7 10 1012.4 1012.4 0.6
16/03:30am 13.0 8.9 10.2 83 1.4 WNW 22 28 12 15 1012.4 1012.4 0.6
16/03:00am 13.6 10.3 10.8 83 1.5 WNW 19 26 10 14 1012.6 1012.6 0.4
16/02:30am 13.4 10.1 10.8 84 1.4 WNW 19 24 10 13 1012.9 1012.9 0.4
16/02:00am 13.4 10.8 10.8 84 1.4 NW 15 19 8 10 1013.1 1013.1 0.4
16/01:30am 13.2 9.8 10.6 84 1.4 WNW 19 24 10 13 1013.4 1013.4 0.4
16/01:00am 12.9 9.8 10.3 84 1.3 NW 17 24 9 13 1013.7 1013.7 0.4
16/12:30am 12.4 9.9 9.6 83 1.4 NW 13 17 7 9 1014.1 1014.1 0.4
16/12:00am 14.1 9.7 10.5 79 1.9 WNW 24 35 13 19 1014.2 1014.2 0.2
 
Date/Time
EDT
Temp
°C
App
Temp
°C
Dew
Point
°C
Rel
Hum
%
Delta-T
°C
Wind Press
QNH
hPa
Press
MSL
hPa
Rain since
9am
mm
Dir  Spd
km/h
Gust
km/h
Spd
kts
Gust
kts
15/11:30pm 14.1 11.1 10.5 79 1.9 NW 17 30 9 16 1014.3 1014.3 0.2
15/11:00pm 13.9 10.4 10.3 79 1.9 NNW 19 26 10 14 1014.5 1014.5 0.2
15/10:30pm 14.0 10.5 10.2 78 2.0 NNW 19 26 10 14 1014.8 1014.8 0.2
15/10:00pm 13.5 10.2 9.7 78 1.9 NW 17 24 9 13 1014.9 1014.9 0.2
15/09:30pm 13.8 9.9 9.6 76 2.2 WNW 20 28 11 15 1014.8 1014.8 0.2
15/09:00pm 13.8 9.9 9.6 76 2.2 WNW 20 28 11 15 1015.0 1015.0 0.2
15/08:30pm 13.4 9.7 9.3 76 2.1 W 19 28 10 15 1015.0 1015.0 0.2
15/08:00pm 14.3 10.1 9.9 75 2.3 W 22 32 12 17 1014.9 1014.9 0.2
15/07:30pm 14.4 10.6 9.8 74 2.4 WSW 20 28 11 15 1014.8 1014.8 0.2
15/07:00pm 14.8 11.0 9.8 72 2.6 WNW 20 26 11 14 1014.7 1014.7 0.2
15/06:30pm 15.0 10.8 9.6 70 2.8 WNW 22 32 12 17 1014.8 1014.8 0.2
15/06:00pm 15.7 11.3 10.5 71 2.7 WNW 24 32 13 17 1014.9 1014.9 0.2
15/05:30pm 15.2 11.7 10.2 72 2.6 WNW 19 28 10 15 1015.2 1015.2 0.2
15/05:00pm 15.5 12.0 10.3 71 2.7 NW 19 26 10 14 1015.5 1015.5 0.2
15/04:30pm 15.0 11.2 9.8 71 2.7 WNW 20 28 11 15 1015.9 1015.8 0.2
15/04:00pm 16.4 13.5 10.9 70 2.9 NW 17 24 9 13 1016.2 1016.1 0.2
15/03:30pm 16.1 12.9 11.1 72 2.7 WNW 19 28 10 15 1016.2 1016.1 0.2
15/03:00pm 16.0 13.5 11.0 72 2.7 NNW 15 20 8 11 1016.2 1016.1 0.2
15/02:30pm 15.6 13.0 10.8 73 2.6 NW 15 22 8 12 1016.2 1016.1 0.2
15/02:00pm 15.3 13.5 10.9 75 2.3 WNW 11 17 6 9 1016.3 1016.2 0.2
15/01:30pm 13.8 9.4 8.8 72 2.5 W 22 30 12 16 1016.3 1016.2 0.2
15/01:00pm 15.0 11.4 8.5 65 3.3 W 17 26 9 14 1016.1 1016.0 0.0
15/12:30pm 14.7 11.1 8.2 65 3.3 W 17 28 9 15 1016.3 1016.2 0.0
15/12:00pm 15.6 11.8 9.1 65 3.3 W 19 26 10 14 1016.1 1016.0 0.0
15/11:30am 14.8 10.1 9.2 69 2.9 W 24 33 13 18 1016.0 1015.9 0.0
15/11:00am 14.6 9.6 9.6 72 2.6 WSW 26 32 14 17 1016.0 1015.9 0.0
15/10:30am 13.6 7.7 8.9 73 2.4 WSW 30 35 16 19 1015.8 1015.7 0.0
15/10:00am 13.7 8.9 7.5 66 3.0 W 22 32 12 17 1015.5 1015.5 0.0
15/09:30am 14.0 9.8 7.5 65 3.2 W 19 26 10 14 1015.2 1015.2 0.0
15/09:00am 13.9 10.2 7.9 67 3.0 W 17 30 9 16 1014.9 1014.9 0.0
15/08:30am 13.9 9.2 7.9 67 3.0 WSW 22 32 12 17 1014.5 1014.5 0.0
15/08:00am 13.3 8.2 7.5 68 2.8 WSW 24 33 13 18 1014.4 1014.4 0.0
15/07:30am 13.4 8.6 7.2 66 3.0 WSW 22 32 12 17 1014.1 1014.1 0.0
15/07:00am 13.2 8.8 6.5 64 3.2 WSW 19 28 10 15 1013.9 1013.9 0.0
15/06:30am 13.2 7.1 6.5 64 3.2 WSW 28 35 15 19 1013.6 1013.6 0.0
15/06:00am 13.3 7.3 6.9 65 3.1 WSW 28 37 15 20 1013.2 1013.2 0.0
15/05:30am 13.2 6.3 6.5 64 3.2 WSW 32 39 17 21 1012.9 1012.9 0.0
15/05:00am 13.2 5.6 7.4 68 2.8 SW 37 43 20 23 1012.6 1012.6 0.0
15/04:30am 13.3 6.4 6.4 63 3.3 WSW 32 41 17 22 1012.1 1012.1 0.0
15/04:00am 13.2 6.9 7.2 67 2.9 SW 30 41 16 22 1012.2 1012.2 0.0
15/03:30am 13.3 7.5 6.4 63 3.3 WSW 26 32 14 17 1012.2 1012.2 0.0
15/03:00am 13.1 6.5 6.0 62 3.4 WSW 30 39 16 21 1012.2 1012.2 0.0
15/02:30am 13.2 5.9 7.4 68 2.8 SW 35 41 19 22 1012.2 1012.2 0.0
15/02:00am 13.1 6.3 7.8 70 2.6 WSW 33 43 18 23 1012.2 1012.2 0.0
15/01:30am 13.0 5.8 7.7 70 2.6 WSW 35 44 19 24 1012.2 1012.2 0.0
15/01:00am 13.5 7.1 6.8 64 3.2 WSW 30 39 16 21 1012.3 1012.3 0.0
15/12:30am 13.5 6.9 5.9 60 3.6 WSW 30 37 16 20 1012.2 1012.2 0.0
15/12:00am 13.3 5.3 7.3 67 2.9 WSW 39 48 21 26 1012.0 1012.0 0.0
 
Date/Time
EDT
Temp
°C
App
Temp
°C
Dew
Point
°C
Rel
Hum
%
Delta-T
°C
Wind Press
QNH
hPa
Press
MSL
hPa
Rain since
9am
mm
Dir  Spd
km/h
Gust
km/h
Spd
kts
Gust
kts
14/11:30pm 13.2 6.0 7.6 69 2.7 SW 35 39 19 21 1012.0 1012.0 0.0
14/11:00pm 13.5 7.2 7.3 66 3.0 WSW 30 35 16 19 1011.8 1011.8 0.0
14/10:30pm 13.4 6.5 7.4 67 2.9 SW 33 41 18 22 1011.7 1011.7 0.0
14/10:00pm 13.4 5.1 7.8 69 2.8 SW 41 48 22 26 1011.3 1011.3 0.0
14/09:30pm 13.4 6.1 7.4 67 2.9 WSW 35 41 19 22 1010.9 1010.9 0.0
14/09:00pm 13.4 6.3 6.3 62 3.4 WSW 33 39 18 21 1010.6 1010.6 0.0
14/08:30pm 13.4 3.5 6.5 63 3.3 WSW 48 57 26 31 1009.9 1009.9 0.0
14/08:00pm 13.6 4.7 7.8 68 2.9 WSW 44 52 24 28 1009.3 1009.3 0.0
14/07:30pm 13.6 5.4 8.0 69 2.8 WSW 41 46 22 25 1008.8 1008.8 0.0
14/07:00pm 13.4 6.8 8.5 72 2.5 SW 33 44 18 24 1008.3 1008.3 0.0
14/06:54pm 12.9 5.4 8.0 72 2.4 SW 37 57 20 31 1008.5 1008.5 0.0
14/06:30pm 13.8 5.6 8.0 68 2.9 WSW 41 48 22 26 1007.7 1007.7 0.0
14/06:00pm 13.9 6.6 8.7 71 2.6 WSW 37 46 20 25 1007.1 1007.1 0.0
14/05:41pm 12.7 4.9 8.2 74 2.2 WSW 39 57 21 31 1007.1 1007.1 0.0
14/05:30pm 12.8 3.6 7.9 72 2.4 SW 46 63 25 34 1006.4 1006.4 0.0
14/05:00pm 14.6 5.9 8.5 67 3.1 SW 44 54 24 29 1006.1 1006.1 0.0
14/04:30pm 14.8 6.9 9.4 70 2.8 SW 41 50 22 27 1005.7 1005.7 0.0
14/04:00pm 14.4 5.0 8.8 69 2.8 SW 48 56 26 30 1004.5 1004.5 0.0
14/03:30pm 14.4 5.9 8.6 68 2.9 WSW 43 61 23 33 1003.8 1003.8 0.0
14/03:00pm 14.9 6.0 9.3 69 2.9 WSW 46 57 25 31 1003.1 1003.1 0.0
14/02:30pm 14.8 5.1 10.4 75 2.3 SW 52 61 28 33 1002.2 1002.2 0.0
14/02:00pm 13.9 3.8 10.5 80 1.8 SW 54 72 29 39 1001.9 1001.9 0.0
14/01:52pm 14.6 5.6 10.2 75 2.3 WSW 48 72 26 39 1001.5 1001.5 0.0
14/01:30pm 15.1 5.8 10.5 74 2.4 WSW 50 59 27 32 1001.2 1001.2 0.0
14/01:00pm 15.0 5.0 10.6 75 2.3 WSW 54 69 29 37 1000.3 1000.3 0.0
14/12:31pm 15.6 6.9 11.2 75 2.4 WSW 48 70 26 38 1000.0 1000.0 0.0
14/12:30pm 15.8 7.1 11.4 75 2.4 WSW 48 59 26 32 1000.1 1000.1 0.0
14/12:00pm 15.2 7.9 11.4 78 2.1 W 41 56 22 30 999.6 999.6 0.0
14/11:38am 16.1 10.6 11.7 75 2.4 W 32 50 17 27 999.1 999.1 0.0
14/11:30am 15.9 10.2 11.7 76 2.3 W 33 50 18 27 999.1 999.1 0.0
14/11:24am 15.9 10.4 11.7 76 2.3 W 32 50 17 27 999.0 999.0 0.0
14/11:00am 16.5 10.3 12.7 78 2.1 WSW 37 52 20 28 998.5 998.5 0.0
14/10:46am 15.1 8.9 11.5 79 1.9 W 35 56 19 30 998.1 998.1 0.0
14/10:30am 15.5 10.1 12.3 81 1.7 W 32 44 17 24 998.2 998.2 0.0
14/10:10am 15.2 9.3 12.3 83 1.6 W 35 56 19 30 998.1 998.1 0.0
14/10:00am 14.6 8.2 11.9 84 1.5 W 37 52 20 28 997.8 997.8 0.0
14/09:30am 13.9 6.2 11.4 85 1.3 W 43 59 23 32 997.5 997.5 0.0
14/09:00am 14.1 7.3 12.0 87 1.1 W 39 59 21 32 996.7 996.7 15.0
14/08:30am 13.5 5.2 11.4 87 1.1 WNW 46 65 25 35 996.0 996.0 14.8
14/08:11am 14.0 5.8 11.7 86 1.2 WNW 46 67 25 36 995.6 995.6 14.8
14/08:00am 14.4 5.9 12.1 86 1.3 WNW 48 65 26 35 995.3 995.3 14.6
14/07:30am 13.9 4.4 11.2 84 1.4 WNW 52 72 28 39 994.5 994.5 14.4
14/07:15am 14.2 5.6 11.5 84 1.4 WNW 48 67 26 36 994.2 994.2 14.2
14/07:00am 14.6 6.0 11.7 83 1.6 WNW 48 65 26 35 994.1 994.1 13.8
14/06:35am 14.2 5.9 11.5 84 1.4 WNW 46 65 25 35 993.8 993.8 13.8
14/06:30am 14.3 4.9 11.6 84 1.4 WNW 52 67 28 36 993.8 993.8 13.8

Other Formats:

Comma delimited format used in spreadsheet applications
http://www.bom.gov.au/fwo/IDT60801/IDT60801.94974.axf

JavaScript Object Notation format (JSON) in row-major order
http://www.bom.gov.au/fwo/IDT60801/IDT60801.94974.json